createdAt,value
2023-05-06T00:01:35.604Z,97.84
2023-05-06T00:04:02.320Z,97.54
2023-05-06T00:06:29.365Z,97.17
2023-05-06T00:08:55.916Z,97.04
2023-05-06T00:11:22.755Z,97.56
2023-05-06T00:13:49.220Z,97.30
2023-05-06T00:16:16.259Z,97.94
2023-05-06T00:18:43.095Z,98.05
2023-05-06T00:21:09.652Z,97.85
2023-05-06T00:23:36.114Z,98.58
2023-05-06T00:26:02.639Z,98.46
2023-05-06T00:28:29.099Z,98.25
2023-05-06T00:30:55.614Z,98.12
2023-05-06T00:33:22.058Z,98.46
2023-05-06T00:35:48.990Z,99.00
2023-05-06T00:38:15.665Z,98.58
2023-05-06T00:40:42.157Z,98.61
2023-05-06T00:43:08.965Z,98.94
2023-05-06T00:45:35.801Z,99.27
2023-05-06T00:48:04.211Z,98.86
2023-05-06T00:50:32.614Z,98.86
2023-05-06T00:53:00.025Z,98.58
2023-05-06T00:55:27.418Z,99.13
2023-05-06T00:57:54.450Z,99.30
2023-05-06T01:00:21.528Z,99.59
2023-05-06T01:02:48.913Z,100.00
2023-05-06T01:05:22.266Z,100.00
2023-05-06T01:08:13.010Z,100.00
2023-05-06T01:10:49.734Z,100.00
2023-05-06T01:13:34.460Z,100.00
2023-05-06T01:16:02.401Z,99.93
2023-05-06T01:18:32.580Z,100.00
2023-05-06T01:21:00.043Z,100.00
2023-05-06T01:23:26.579Z,100.00
2023-05-06T01:25:53.204Z,100.00
2023-05-06T01:28:19.726Z,100.00
2023-05-06T01:30:46.115Z,100.00
2023-05-06T01:33:33.503Z,100.00
2023-05-06T01:36:24.716Z,100.00
2023-05-06T01:39:12.661Z,99.58
2023-05-06T01:41:41.485Z,99.22
2023-05-06T01:44:08.749Z,98.31
2023-05-06T01:46:36.105Z,98.52
2023-05-06T01:49:06.020Z,98.50
2023-05-06T01:51:33.885Z,98.57
2023-05-06T01:54:01.689Z,99.09
2023-05-06T01:56:30.334Z,99.08
2023-05-06T01:58:59.379Z,98.73
2023-05-06T02:01:26.399Z,98.69
2023-05-06T02:03:53.168Z,98.67
2023-05-06T02:06:19.916Z,98.39
2023-05-06T02:08:46.739Z,98.11
2023-05-06T02:11:13.146Z,97.53
2023-05-06T02:13:39.959Z,97.26
2023-05-06T02:16:06.917Z,96.62
2023-05-06T02:18:33.780Z,96.61
2023-05-06T02:21:01.029Z,96.57
2023-05-06T02:23:27.530Z,96.69
2023-05-06T02:25:54.018Z,96.35
2023-05-06T02:28:20.800Z,96.26
2023-05-06T02:30:47.269Z,96.02
2023-05-06T02:33:13.785Z,95.77
2023-05-06T02:35:40.998Z,96.13
2023-05-06T02:38:07.551Z,96.43
2023-05-06T02:40:34.066Z,96.06
2023-05-06T02:43:00.747Z,96.16
2023-05-06T02:45:27.276Z,96.22
2023-05-06T02:47:53.737Z,96.60
2023-05-06T02:50:20.311Z,95.86
2023-05-06T02:52:46.866Z,95.58
2023-05-06T02:55:13.483Z,95.13
2023-05-06T02:57:40.076Z,95.35
2023-05-06T03:00:07.392Z,95.21
2023-05-06T03:02:33.934Z,95.45
2023-05-06T03:05:00.532Z,96.02
2023-05-06T03:07:27.059Z,96.10
2023-05-06T03:09:53.513Z,95.83
2023-05-06T03:12:19.939Z,96.12
2023-05-06T03:14:46.430Z,96.05
2023-05-06T03:17:12.933Z,96.13
2023-05-06T03:19:39.710Z,95.76
2023-05-06T03:22:06.653Z,95.65
2023-05-06T03:24:33.212Z,95.79
2023-05-06T03:26:59.690Z,95.65
2023-05-06T03:29:26.282Z,95.79
2023-05-06T03:31:56.331Z,95.57
2023-05-06T03:34:22.956Z,95.74
2023-05-06T03:36:49.449Z,96.03
2023-05-06T03:39:15.947Z,95.66
2023-05-06T03:41:42.747Z,95.52
2023-05-06T03:44:09.219Z,95.88
2023-05-06T03:46:35.932Z,95.61
2023-05-06T03:49:02.912Z,95.74
2023-05-06T03:51:29.658Z,95.41
2023-05-06T03:53:56.573Z,95.48
2023-05-06T03:56:23.139Z,95.16
2023-05-06T03:58:49.717Z,95.72
2023-05-06T04:01:18.201Z,96.02
2023-05-06T04:03:44.877Z,96.00
2023-05-06T04:06:11.474Z,95.42
2023-05-06T04:08:37.970Z,95.17
2023-05-06T04:11:08.513Z,94.93
2023-05-06T04:13:35.052Z,95.29
2023-05-06T04:16:02.912Z,95.79
2023-05-06T04:18:29.678Z,95.99
2023-05-06T04:20:56.236Z,96.22
2023-05-06T04:23:22.817Z,95.97
2023-05-06T04:25:49.667Z,95.27
2023-05-06T04:28:16.938Z,94.82
2023-05-06T04:30:44.236Z,94.85
2023-05-06T04:33:10.814Z,94.80
2023-05-06T04:35:37.634Z,94.75
2023-05-06T04:38:04.135Z,94.61
2023-05-06T04:40:30.785Z,94.27
2023-05-06T04:42:57.191Z,95.33
2023-05-06T04:45:24.600Z,94.89
2023-05-06T04:47:52.523Z,94.99
2023-05-06T04:50:19.191Z,95.08
2023-05-06T04:52:45.795Z,95.28
2023-05-06T04:55:12.581Z,95.22
2023-05-06T04:57:39.299Z,95.63
2023-05-06T05:00:06.562Z,95.93
2023-05-06T05:02:33.181Z,96.32
2023-05-06T05:04:59.799Z,96.33
2023-05-06T05:07:26.317Z,95.95
2023-05-06T05:09:52.798Z,96.44
2023-05-06T05:12:19.714Z,96.33
2023-05-06T05:14:47.351Z,96.54
2023-05-06T05:17:13.922Z,96.54
2023-05-06T05:19:41.084Z,97.14
2023-05-06T05:22:07.540Z,97.82
2023-05-06T05:24:34.003Z,98.63
2023-05-06T05:27:00.446Z,99.13
2023-05-06T05:29:26.899Z,99.10
2023-05-06T05:31:53.451Z,99.22
2023-05-06T05:34:20.093Z,99.06
2023-05-06T05:36:46.532Z,97.25
2023-05-06T05:39:13.128Z,95.26
2023-05-06T05:41:39.674Z,95.63
2023-05-06T05:44:06.754Z,96.52
2023-05-06T05:46:33.461Z,97.40
2023-05-06T05:48:59.968Z,97.61
2023-05-06T05:51:26.410Z,97.79
2023-05-06T05:53:53.273Z,97.76
2023-05-06T05:56:19.865Z,97.39
2023-05-06T05:58:47.487Z,97.62
2023-05-06T06:01:14.579Z,98.08
2023-05-06T06:03:42.198Z,98.26
2023-05-06T06:06:09.475Z,98.51
2023-05-06T06:08:36.386Z,98.65
2023-05-06T06:11:04.464Z,99.13
2023-05-06T06:13:31.436Z,99.29
2023-05-06T06:15:58.358Z,99.38
2023-05-06T06:18:24.927Z,99.02
2023-05-06T06:20:53.599Z,99.30
2023-05-06T06:23:21.017Z,99.39
2023-05-06T06:25:47.549Z,99.62
2023-05-06T06:28:14.155Z,99.79
2023-05-06T06:30:40.999Z,99.44
2023-05-06T06:33:07.695Z,99.87
2023-05-06T06:35:34.872Z,99.74
2023-05-06T06:38:01.632Z,99.57
2023-05-06T06:40:28.213Z,99.69
2023-05-06T06:42:54.814Z,100.00
2023-05-06T06:45:22.200Z,99.66
2023-05-06T06:47:48.802Z,99.81
2023-05-06T06:50:15.452Z,100.00
2023-05-06T06:52:41.956Z,99.86
2023-05-06T06:55:09.239Z,100.00
2023-05-06T06:57:37.164Z,99.57
2023-05-06T07:00:04.359Z,99.47
2023-05-06T07:02:30.997Z,98.81
2023-05-06T07:04:57.510Z,98.60
2023-05-06T07:07:23.994Z,98.27
2023-05-06T07:09:50.480Z,98.32
2023-05-06T07:12:16.975Z,98.66
2023-05-06T07:14:43.439Z,98.11
2023-05-06T07:17:09.993Z,97.92
2023-05-06T07:19:36.517Z,98.30
2023-05-06T07:22:03.079Z,98.08
2023-05-06T07:24:29.739Z,94.98
2023-05-06T07:26:56.655Z,93.75
2023-05-06T07:29:23.446Z,93.34
2023-05-06T07:31:50.040Z,89.59
2023-05-06T07:34:16.520Z,90.57
2023-05-06T07:36:44.720Z,91.84
2023-05-06T07:39:12.401Z,91.39
2023-05-06T07:41:39.006Z,89.63
2023-05-06T07:44:06.422Z,90.01
2023-05-06T07:46:33.354Z,89.88
2023-05-06T07:49:00.031Z,88.38
2023-05-06T07:51:27.084Z,89.46
2023-05-06T07:53:53.711Z,89.69
2023-05-06T07:56:20.178Z,89.14
2023-05-06T07:58:46.698Z,89.03
2023-05-06T08:01:13.206Z,87.15
2023-05-06T08:03:39.919Z,85.54
2023-05-06T08:06:06.891Z,86.60
2023-05-06T08:08:33.543Z,85.33
2023-05-06T08:11:00.918Z,84.53
2023-05-06T08:13:28.193Z,84.10
2023-05-06T08:15:56.167Z,85.26
2023-05-06T08:18:23.315Z,85.43
2023-05-06T08:20:56.604Z,83.15
2023-05-06T08:23:27.764Z,84.55
2023-05-06T08:25:54.640Z,83.42
2023-05-06T08:28:22.109Z,83.34
2023-05-06T08:30:51.484Z,82.00
2023-05-06T08:33:19.341Z,80.24
2023-05-06T08:35:46.913Z,80.22
2023-05-06T08:38:13.464Z,78.36
2023-05-06T08:40:44.838Z,78.68
2023-05-06T08:43:15.006Z,78.04
2023-05-06T08:45:42.468Z,77.27
2023-05-06T08:48:09.397Z,77.64
2023-05-06T08:50:40.793Z,77.97
2023-05-06T08:53:09.347Z,78.15
2023-05-06T08:55:37.358Z,76.20
2023-05-06T08:58:07.095Z,77.66
2023-05-06T09:00:34.058Z,74.77
2023-05-06T09:03:01.774Z,75.07
2023-05-06T09:05:28.888Z,74.38
2023-05-06T09:07:55.594Z,74.33
2023-05-06T09:10:22.339Z,73.76
2023-05-06T09:12:49.003Z,74.58
2023-05-06T09:15:16.340Z,74.51
2023-05-06T09:17:42.888Z,73.92
2023-05-06T09:20:12.451Z,73.48
2023-05-06T09:22:40.298Z,73.31
2023-05-06T09:25:07.530Z,72.53
2023-05-06T09:27:36.734Z,72.06
2023-05-06T09:30:06.965Z,73.88
2023-05-06T09:32:36.681Z,73.34
2023-05-06T09:35:05.280Z,73.79
2023-05-06T09:37:31.817Z,71.52
2023-05-06T09:40:00.460Z,69.85
2023-05-06T09:42:28.817Z,70.79
2023-05-06T09:45:01.966Z,71.80
2023-05-06T09:47:34.013Z,71.70
2023-05-06T09:50:04.525Z,72.19
2023-05-06T09:52:31.565Z,70.08
2023-05-06T09:54:59.109Z,70.30
2023-05-06T09:57:26.219Z,69.92
2023-05-06T09:59:54.120Z,71.53
2023-05-06T10:02:23.578Z,72.62
2023-05-06T10:04:53.190Z,68.49
2023-05-06T10:07:22.828Z,66.27
2023-05-06T10:09:51.446Z,66.15
2023-05-06T10:12:19.903Z,68.63
2023-05-06T10:14:46.512Z,67.03
2023-05-06T10:17:13.916Z,68.37
2023-05-06T10:19:44.918Z,67.55
2023-05-06T10:22:22.866Z,67.38
2023-05-06T10:24:58.770Z,66.66
2023-05-06T10:27:25.481Z,65.57
2023-05-06T10:29:59.735Z,63.10
2023-05-06T10:32:31.372Z,65.26
2023-05-06T10:35:18.856Z,63.38
2023-05-06T10:37:47.745Z,64.87
2023-05-06T10:40:14.634Z,63.50
2023-05-06T10:42:43.435Z,64.89
2023-05-06T10:45:11.150Z,61.87
2023-05-06T10:47:56.235Z,61.83
2023-05-06T10:50:26.815Z,62.38
2023-05-06T10:52:59.282Z,63.09
2023-05-06T10:55:37.862Z,61.48
2023-05-06T10:58:11.917Z,59.91
2023-05-06T11:00:38.630Z,59.90
2023-05-06T11:03:07.723Z,59.28
2023-05-06T11:05:54.222Z,57.82
2023-05-06T11:08:26.051Z,58.98
2023-05-06T11:10:53.981Z,61.82
2023-05-06T11:13:34.651Z,58.86
2023-05-06T11:16:02.589Z,61.32
2023-05-06T11:18:33.917Z,60.81
2023-05-06T11:21:00.721Z,61.84
2023-05-06T11:23:42.135Z,61.12
2023-05-06T11:26:09.953Z,60.11
2023-05-06T11:28:36.567Z,59.98
2023-05-06T11:31:03.503Z,60.75
2023-05-06T11:33:35.850Z,58.71
2023-05-06T11:36:04.066Z,56.39
2023-05-06T11:38:52.797Z,56.88
2023-05-06T11:41:20.000Z,60.86
2023-05-06T11:43:47.291Z,56.02
2023-05-06T11:46:13.936Z,54.88
2023-05-06T11:48:40.801Z,54.75
2023-05-06T11:51:08.224Z,54.27
2023-05-06T11:53:34.966Z,55.74
2023-05-06T11:56:01.998Z,54.42
2023-05-06T11:58:29.312Z,55.60
2023-05-06T12:01:00.772Z,54.79
2023-05-06T12:03:29.361Z,53.96
2023-05-06T12:05:56.348Z,57.09
2023-05-06T12:08:27.800Z,53.07
2023-05-06T12:10:57.726Z,51.13
2023-05-06T12:13:26.373Z,50.89
2023-05-06T12:15:55.058Z,53.88
2023-05-06T12:18:23.245Z,54.11
2023-05-06T12:20:50.137Z,56.05
2023-05-06T12:23:16.998Z,59.60
2023-05-06T12:25:47.015Z,56.33
2023-05-06T12:28:17.994Z,53.83
2023-05-06T12:30:44.941Z,54.41
2023-05-06T12:33:11.841Z,54.97
2023-05-06T12:35:39.755Z,53.80
2023-05-06T12:38:14.597Z,53.30
2023-05-06T12:40:42.912Z,51.15
2023-05-06T12:43:11.646Z,50.72
2023-05-06T12:45:39.774Z,54.02
2023-05-06T12:48:07.359Z,54.01
2023-05-06T12:50:36.432Z,50.10
2023-05-06T12:53:04.297Z,51.43
2023-05-06T12:55:36.204Z,52.73
2023-05-06T12:58:03.079Z,53.12
2023-05-06T13:00:30.378Z,54.49
2023-05-06T13:05:39.253Z,54.23
2023-05-06T13:08:05.936Z,54.54
2023-05-06T13:10:32.736Z,51.52
2023-05-06T13:12:59.262Z,53.67
2023-05-06T13:15:29.495Z,54.19
2023-05-06T13:17:57.206Z,51.01
2023-05-06T13:20:27.150Z,52.56
2023-05-06T13:23:17.749Z,49.34
2023-05-06T13:26:03.476Z,48.07
2023-05-06T13:28:35.686Z,51.39
2023-05-06T13:31:02.647Z,51.06
2023-05-06T13:33:32.226Z,54.55
2023-05-06T13:35:58.718Z,48.46
2023-05-06T13:38:25.290Z,49.79
2023-05-06T13:40:59.496Z,51.41
2023-05-06T13:43:26.303Z,53.86
2023-05-06T13:45:55.611Z,51.35
2023-05-06T13:48:22.508Z,50.36
2023-05-06T13:50:49.006Z,52.23
2023-05-06T13:53:16.488Z,49.51
2023-05-06T13:55:43.809Z,49.58
2023-05-06T13:58:11.232Z,47.71
2023-05-06T14:00:38.032Z,49.77
2023-05-06T14:03:04.736Z,47.46
2023-05-06T14:05:33.198Z,48.34
2023-05-06T14:08:12.580Z,48.91
2023-05-06T14:10:39.458Z,46.05
2023-05-06T14:13:07.262Z,44.90
2023-05-06T14:15:34.134Z,41.11
2023-05-06T14:18:01.164Z,46.18
2023-05-06T14:20:29.546Z,45.30
2023-05-06T14:22:55.992Z,44.32
2023-05-06T14:25:28.139Z,46.91
2023-05-06T14:27:55.068Z,46.66
2023-05-06T14:30:22.236Z,48.65
2023-05-06T14:32:48.874Z,47.24
2023-05-06T14:35:15.448Z,44.92
2023-05-06T14:37:43.394Z,45.98
2023-05-06T14:40:12.092Z,44.90
2023-05-06T14:42:38.765Z,47.18
2023-05-06T14:45:07.148Z,47.26
2023-05-06T14:47:33.777Z,47.80
2023-05-06T14:50:01.785Z,49.08
2023-05-06T14:52:29.417Z,49.75
2023-05-06T14:54:56.172Z,48.53
2023-05-06T14:57:23.905Z,47.57
2023-05-06T14:59:51.923Z,50.28
2023-05-06T15:02:18.692Z,50.00
2023-05-06T15:04:46.118Z,49.07
2023-05-06T15:07:16.599Z,48.96
2023-05-06T15:09:44.206Z,46.69
2023-05-06T15:12:13.870Z,47.04
2023-05-06T15:14:40.434Z,48.25
2023-05-06T15:17:07.361Z,50.24
2023-05-06T15:19:34.146Z,48.72
2023-05-06T15:22:00.818Z,49.69
2023-05-06T15:24:29.203Z,50.39
2023-05-06T15:26:55.783Z,46.91
2023-05-06T15:29:22.308Z,47.41
2023-05-06T15:31:48.933Z,48.45
2023-05-06T15:34:15.491Z,51.16
2023-05-06T15:36:42.148Z,51.51
2023-05-06T15:39:08.730Z,51.36
2023-05-06T15:41:36.302Z,50.38
2023-05-06T15:44:06.206Z,51.45
2023-05-06T15:46:33.080Z,52.91
2023-05-06T15:49:21.025Z,52.33
2023-05-06T15:51:46.611Z,52.94
2023-05-06T15:54:15.476Z,51.22
2023-05-06T15:56:41.973Z,51.40
2023-05-06T15:59:09.099Z,53.65
2023-05-06T16:02:18.988Z,52.25
2023-05-06T16:04:23.206Z,52.01
2023-05-06T16:06:50.026Z,49.69
2023-05-06T16:09:16.580Z,51.89
2023-05-06T16:11:43.036Z,52.24
2023-05-06T16:14:09.549Z,52.71
2023-05-06T16:16:36.117Z,52.45
2023-05-06T16:19:02.944Z,51.92
2023-05-06T16:21:29.418Z,54.42
2023-05-06T16:23:55.944Z,53.51
2023-05-06T16:26:22.653Z,53.22
2023-05-06T16:28:49.167Z,50.96
2023-05-06T16:31:16.226Z,53.21
2023-05-06T16:33:42.923Z,53.20
2023-05-06T16:36:09.595Z,54.53
2023-05-06T16:38:36.618Z,53.44
2023-05-06T16:41:03.166Z,54.89
2023-05-06T16:43:29.820Z,53.94
2023-05-06T16:45:56.356Z,54.46
2023-05-06T16:50:49.483Z,54.25
2023-05-06T16:53:17.340Z,55.75
2023-05-06T16:55:48.639Z,55.26
2023-05-06T16:58:15.857Z,54.86
2023-05-06T17:00:42.397Z,56.19
2023-05-06T17:03:09.066Z,56.15
2023-05-06T17:05:36.389Z,57.11
2023-05-06T17:08:03.977Z,57.85
2023-05-06T17:10:30.468Z,57.30
2023-05-06T17:12:57.764Z,57.68
2023-05-06T17:15:24.943Z,57.97
2023-05-06T17:17:52.151Z,57.72
2023-05-06T17:20:20.096Z,58.79
2023-05-06T17:22:47.066Z,58.20
2023-05-06T17:25:13.733Z,58.92
2023-05-06T17:27:40.371Z,59.32
2023-05-06T17:30:09.833Z,58.13
2023-05-06T17:32:36.542Z,56.50
2023-05-06T17:35:03.211Z,59.16
2023-05-06T17:37:30.976Z,58.69
2023-05-06T17:39:57.526Z,59.94
2023-05-06T17:42:24.021Z,60.55
2023-05-06T17:44:50.583Z,60.16
2023-05-06T17:47:17.470Z,61.00
2023-05-06T17:49:43.954Z,60.18
2023-05-06T17:52:10.646Z,61.63
2023-05-06T17:54:38.160Z,63.29
2023-05-06T17:57:04.706Z,64.35
2023-05-06T17:59:31.452Z,65.79
2023-05-06T18:01:57.958Z,67.02
2023-05-06T18:04:24.570Z,68.23
2023-05-06T18:06:51.255Z,68.96
2023-05-06T18:09:17.792Z,70.10
2023-05-06T18:11:44.387Z,70.70
2023-05-06T18:14:11.767Z,72.34
2023-05-06T18:16:38.451Z,73.39
2023-05-06T18:19:05.222Z,73.89
2023-05-06T18:21:34.000Z,74.56
2023-05-06T18:24:10.253Z,74.94
2023-05-06T18:26:45.377Z,75.74
2023-05-06T18:29:12.511Z,76.50
2023-05-06T18:31:39.113Z,76.78
2023-05-06T18:34:05.681Z,77.08
2023-05-06T18:36:32.611Z,77.69
2023-05-06T18:38:59.164Z,77.72
2023-05-06T18:41:25.752Z,77.83
2023-05-06T18:43:52.344Z,78.08
2023-05-06T18:46:18.996Z,78.49
2023-05-06T18:48:45.845Z,78.12
2023-05-06T18:51:17.054Z,77.95
2023-05-06T18:53:44.851Z,77.90
2023-05-06T18:56:11.973Z,78.42
2023-05-06T18:58:39.715Z,78.81
2023-05-06T19:01:07.781Z,78.85
2023-05-06T19:03:34.909Z,79.34
2023-05-06T19:06:03.305Z,79.16
2023-05-06T19:08:30.944Z,79.10
2023-05-06T19:11:00.934Z,78.94
2023-05-06T19:13:28.034Z,79.13
2023-05-06T19:15:54.852Z,78.62
2023-05-06T19:18:21.378Z,78.83
2023-05-06T19:20:47.906Z,78.85
2023-05-06T19:23:14.487Z,79.12
2023-05-06T19:25:40.999Z,79.28
2023-05-06T19:28:07.536Z,79.13
2023-05-06T19:30:35.260Z,79.44
2023-05-06T19:33:02.707Z,79.04
2023-05-06T19:35:29.491Z,79.16
2023-05-06T19:37:56.150Z,79.05
2023-05-06T19:40:22.767Z,78.92
2023-05-06T19:42:49.316Z,79.47
2023-05-06T19:45:18.140Z,79.47
2023-05-06T19:47:45.794Z,79.36
2023-05-06T19:50:12.937Z,79.62
2023-05-06T19:52:40.025Z,80.43
2023-05-06T19:55:07.206Z,80.31
2023-05-06T19:57:34.211Z,80.17
2023-05-06T20:00:05.199Z,79.59
2023-05-06T20:02:32.884Z,79.61
2023-05-06T20:05:00.586Z,80.11
2023-05-06T20:07:27.371Z,79.46
2023-05-06T20:09:55.927Z,79.88
2023-05-06T20:12:23.325Z,79.88
2023-05-06T20:14:49.812Z,80.12
2023-05-06T20:17:16.832Z,79.58
2023-05-06T20:19:44.971Z,80.42
2023-05-06T20:22:11.813Z,80.47
2023-05-06T20:24:41.350Z,80.60
2023-05-06T20:27:08.259Z,80.49
2023-05-06T20:29:34.919Z,80.85
2023-05-06T20:32:01.712Z,80.55
2023-05-06T20:34:28.514Z,81.44
2023-05-06T20:36:56.141Z,80.84
2023-05-06T20:39:25.492Z,80.75
2023-05-06T20:41:51.971Z,80.59
2023-05-06T20:44:18.706Z,80.69
2023-05-06T20:46:45.283Z,80.56
2023-05-06T20:49:11.808Z,80.75
2023-05-06T20:51:38.460Z,81.03
2023-05-06T20:54:05.032Z,81.06
2023-05-06T20:56:31.659Z,81.23
2023-05-06T20:58:58.119Z,81.05
2023-05-06T21:01:25.659Z,80.87
2023-05-06T21:03:52.497Z,81.19
2023-05-06T21:06:19.649Z,81.77
2023-05-06T21:08:47.116Z,81.82
2023-05-06T21:11:13.964Z,81.76
2023-05-06T21:13:44.554Z,81.80
2023-05-06T21:16:11.014Z,82.16
2023-05-06T21:18:37.588Z,81.74
2023-05-06T21:21:04.210Z,81.37
2023-05-06T21:23:31.007Z,81.24
2023-05-06T21:25:59.382Z,81.14
2023-05-06T21:28:25.879Z,81.70
2023-05-06T21:30:52.664Z,81.63
2023-05-06T21:33:19.227Z,81.45
2023-05-06T21:35:45.674Z,81.37
2023-05-06T21:38:12.204Z,81.72
2023-05-06T21:40:38.643Z,81.39
2023-05-06T21:43:05.793Z,82.98
2023-05-06T21:45:32.226Z,83.90
2023-05-06T21:47:58.776Z,84.58
2023-05-06T21:50:25.378Z,84.95
2023-05-06T21:52:51.842Z,85.16
2023-05-06T21:55:19.200Z,85.31
2023-05-06T21:57:46.320Z,84.89
2023-05-06T22:00:13.509Z,85.31
2023-05-06T22:02:40.557Z,85.76
2023-05-06T22:05:08.377Z,85.79
2023-05-06T22:07:35.898Z,86.12
2023-05-06T22:10:02.926Z,86.61
2023-05-06T22:12:29.676Z,87.33
2023-05-06T22:14:56.045Z,86.77
2023-05-06T22:17:22.589Z,87.11
2023-05-06T22:19:49.018Z,86.00
2023-05-06T22:22:16.025Z,85.19
2023-05-06T22:24:42.953Z,85.87
2023-05-06T22:27:09.489Z,85.78
2023-05-06T22:29:36.055Z,86.00
2023-05-06T22:32:03.288Z,86.53
2023-05-06T22:34:30.026Z,86.73
2023-05-06T22:36:58.392Z,87.19
2023-05-06T22:39:27.252Z,86.05
2023-05-06T22:41:53.798Z,85.77
2023-05-06T22:44:21.010Z,85.82
2023-05-06T22:46:47.509Z,86.86
2023-05-06T22:49:14.543Z,87.69
2023-05-06T22:51:41.259Z,88.57
2023-05-06T22:54:07.733Z,88.38
2023-05-06T22:56:34.155Z,87.36
2023-05-06T22:59:00.883Z,88.26
2023-05-06T23:01:32.141Z,89.14
2023-05-06T23:03:59.669Z,90.03
2023-05-06T23:06:27.882Z,90.67
2023-05-06T23:08:54.378Z,90.64
2023-05-06T23:11:21.039Z,90.68
2023-05-06T23:13:47.824Z,90.54
2023-05-06T23:16:14.879Z,90.40
2023-05-06T23:18:41.867Z,90.82
2023-05-06T23:21:09.230Z,91.38
2023-05-06T23:23:35.854Z,91.40
2023-05-06T23:26:02.406Z,91.75
2023-05-06T23:28:29.132Z,91.68
2023-05-06T23:30:55.746Z,90.57
2023-05-06T23:33:22.782Z,89.85
2023-05-06T23:35:49.290Z,89.29
2023-05-06T23:38:15.736Z,89.71
2023-05-06T23:40:42.437Z,90.22
2023-05-06T23:43:11.298Z,90.49
2023-05-06T23:45:37.916Z,89.59
2023-05-06T23:48:04.938Z,89.22
2023-05-06T23:50:31.451Z,88.84
2023-05-06T23:52:57.998Z,88.16
2023-05-06T23:55:26.257Z,87.65
2023-05-06T23:57:52.784Z,88.27
